Latest Weather Observations for St Lawrence

IDQ60801

Issued at 10:02 am EST Thursday 23 February 2017 (issued every 30 minutes, with the page automatically refreshed every 10 minutes)

About weather observations | Map of weather stations | Latest weather observations for QLD | Other Formats
Station Details ID: 033210 Name: ST LAWRENCE Lat: -22.35 Lon: 149.52 Height: 9.19 m
Data from the previous 72 hours. | See also: Recent months at St Lawrence
Date/Time
EST
Temp
°C
App
Temp
°C
Dew
Point
°C
Rel
Hum
%
Delta-T
°C
Wind Press
QNH
hPa
Press
MSL
hPa
Rain since
9am
mm
Dir  Spd
km/h
Gust
km/h
Spd
kts
Gust
kts
23/10:00am 29.0 29.3 18.7 53 6.6 S 15 22 8 12 1016.5 1016.4 -
23/09:30am 28.9 29.6 18.9 54 6.4 SE 13 20 7 11 1016.6 1016.5 0.0
23/09:00am 28.6 29.8 19.0 56 6.2 SE 11 17 6 9 1016.9 1016.8 0.0
23/08:30am 27.4 27.8 18.9 59 5.5 SSE 15 20 8 11 1016.7 1016.6 0.0
23/08:00am 26.3 26.6 18.7 63 4.8 S 15 22 8 12 1016.5 1016.4 0.0
23/07:30am 25.3 25.7 19.0 68 4.0 S 15 22 8 12 1016.3 1016.2 0.0
23/07:00am 24.1 24.9 19.0 73 3.2 S 13 19 7 10 1016.0 1015.9 0.0
23/06:30am 23.4 24.6 19.1 77 2.7 S 11 15 6 8 1015.7 1015.6 0.0
23/06:00am 23.0 24.5 19.0 78 2.5 S 9 11 5 6 1015.5 1015.4 0.0
23/05:30am 22.9 24.5 19.1 79 2.4 S 9 13 5 7 1015.2 1015.1 0.0
23/05:00am 22.5 24.4 18.9 80 2.3 S 7 9 4 5 1014.9 1014.8 0.0
23/04:30am 22.6 24.1 19.0 80 2.3 S 9 13 5 7 1014.8 1014.7 0.0
23/04:00am 22.9 24.5 19.1 79 2.4 S 9 11 5 6 1014.5 1014.4 0.0
23/03:30am 23.2 25.3 19.4 79 2.4 S 7 9 4 5 1014.4 1014.3 0.0
23/03:00am 23.5 25.6 19.4 78 2.6 S 7 11 4 6 1014.5 1014.4 0.0
23/02:30am 23.7 25.9 19.6 78 2.6 S 7 9 4 5 1014.6 1014.5 0.0
23/02:00am 24.2 26.4 19.7 76 2.9 S 7 7 4 4 1014.6 1014.5 0.0
23/01:30am 24.0 26.3 19.5 76 2.9 S 6 7 3 4 1014.9 1014.8 0.0
23/01:00am 24.3 26.5 19.6 75 3.0 S 7 9 4 5 1015.1 1015.0 0.0
23/12:30am 24.5 26.5 19.1 72 3.4 S 7 9 4 5 1015.2 1015.1 0.0
23/12:00am 24.8 27.0 19.2 71 3.6 S 6 7 3 4 1015.5 1015.4 0.0
 
Date/Time
EST
Temp
°C
App
Temp
°C
Dew
Point
°C
Rel
Hum
%
Delta-T
°C
Wind Press
QNH
hPa
Press
MSL
hPa
Rain since
9am
mm
Dir  Spd
km/h
Gust
km/h
Spd
kts
Gust
kts
22/11:30pm 25.2 27.3 19.3 70 3.8 S 7 9 4 5 1015.7 1015.6 0.0
22/11:00pm 25.6 27.9 19.5 69 3.9 S 6 7 3 4 1015.9 1015.8 0.0
22/10:30pm 26.2 28.8 19.3 65 4.4 SE 4 6 2 3 1015.8 1015.7 0.0
22/10:00pm 26.7 28.9 19.6 65 4.6 SSE 7 13 4 7 1015.7 1015.6 0.0
22/09:30pm 26.9 29.4 20.3 67 4.3 SE 7 11 4 6 1015.4 1015.3 0.0
22/09:00pm 27.4 29.7 20.7 67 4.4 ESE 9 15 5 8 1015.2 1015.1 0.0
22/08:30pm 27.6 29.6 20.7 66 4.6 E 11 20 6 11 1014.7 1014.6 0.0
22/08:00pm 28.1 30.2 20.9 65 4.8 E 11 20 6 11 1014.2 1014.1 0.0
22/07:30pm 28.6 30.3 20.9 63 5.1 E 13 24 7 13 1013.8 1013.7 0.0
22/07:00pm 29.1 30.7 20.8 61 5.5 ENE 13 20 7 11 1013.5 1013.4 0.0
22/06:30pm 29.5 31.2 20.9 60 5.7 ENE 13 22 7 12 1013.2 1013.1 0.0
22/06:00pm 29.6 31.5 21.3 61 5.6 ENE 13 26 7 14 1013.1 1013.0 0.0
22/05:30pm 29.8 31.4 21.5 61 5.6 ENE 15 22 8 12 1012.9 1012.8 0.0
22/05:00pm 29.9 31.2 21.6 61 5.6 ENE 17 26 9 14 1012.9 1012.8 0.0
22/04:30pm 30.6 31.7 20.5 54 6.7 ENE 15 28 8 15 1012.7 1012.6 0.0
22/04:00pm 30.5 31.2 20.4 54 6.7 ENE 17 28 9 15 1012.7 1012.6 0.0
22/03:30pm 30.8 30.5 19.5 51 7.4 E 20 32 11 17 1012.6 1012.5 0.0
22/03:00pm 30.0 30.3 20.3 56 6.4 E 19 30 10 16 1012.7 1012.6 0.0
22/02:30pm 30.4 30.8 20.9 57 6.3 E 20 35 11 19 1012.8 1012.7 0.0
22/02:00pm 32.1 32.7 21.3 53 7.3 E 20 32 11 17 1012.9 1012.8 0.0
22/01:30pm 31.6 32.1 21.2 54 7.0 ENE 20 39 11 21 1013.0 1012.9 0.0
22/01:00pm 31.6 32.2 20.2 50 7.6 ENE 17 28 9 15 1013.1 1013.0 0.0
22/12:30pm 32.1 32.4 20.4 50 7.8 ESE 19 30 10 16 1013.6 1013.5 0.0
22/12:00pm 31.4 32.1 20.4 52 7.3 ESE 17 28 9 15 1014.1 1014.0 0.0
22/11:30am 32.1 33.6 21.3 53 7.3 E 15 24 8 13 1014.2 1014.1 0.0
22/11:00am 30.9 32.0 20.5 54 6.9 ESE 15 24 8 13 1014.8 1014.7 0.0
22/10:30am 30.0 31.6 20.8 57 6.1 ESE 13 20 7 11 1015.4 1015.3 0.0
22/10:00am 29.4 30.4 20.3 58 6.0 SE 15 22 8 12 1015.5 1015.4 0.0
22/09:30am 29.0 30.5 21.2 62 5.2 SE 15 24 8 13 1015.7 1015.6 0.0
22/09:00am 28.4 29.9 21.2 65 4.8 SE 15 22 8 12 1015.7 1015.6 0.0
22/08:30am 28.2 30.2 21.5 67 4.5 SE 13 20 7 11 1015.8 1015.7 0.0
22/08:00am 28.4 30.1 21.7 67 4.5 SE 15 22 8 12 1015.5 1015.4 0.0
22/07:30am 27.3 29.9 22.0 73 3.6 SSE 11 17 6 9 1015.4 1015.3 0.0
22/07:00am 26.3 30.0 22.2 78 2.8 SSE 6 9 3 5 1015.3 1015.2 0.0
22/06:30am 25.8 28.9 22.1 80 2.5 S 9 13 5 7 1015.1 1015.0 0.0
22/06:00am 25.6 28.7 22.1 81 2.3 S 9 11 5 6 1014.8 1014.7 0.0
22/05:30am 25.6 28.9 21.9 80 2.5 S 7 9 4 5 1014.5 1014.4 0.0
22/05:00am 25.6 29.1 22.1 81 2.3 S 7 13 4 7 1014.1 1014.0 0.0
22/04:30am 25.5 28.5 22.0 81 2.3 S 9 11 5 6 1013.7 1013.6 0.0
22/04:00am 25.3 28.3 22.0 82 2.2 SSE 9 13 5 7 1013.6 1013.5 0.0
22/03:30am 25.1 28.1 22.0 83 2.1 S 9 11 5 6 1013.6 1013.5 0.0
22/03:00am 25.3 28.3 22.0 82 2.2 S 9 11 5 6 1013.4 1013.3 0.0
22/02:30am 25.5 28.9 22.0 81 2.3 S 7 9 4 5 1013.5 1013.4 0.0
22/02:00am 26.3 30.2 22.6 80 2.5 SE 6 7 3 4 1013.6 1013.5 0.0
22/01:30am 26.6 30.8 22.4 78 2.8 SE 4 6 2 3 1013.9 1013.8 0.0
22/01:00am 27.1 31.0 22.5 76 3.1 E 6 7 3 4 1014.2 1014.1 0.0
22/12:30am 27.5 31.3 22.7 75 3.3 E 7 13 4 7 1014.4 1014.3 0.0
22/12:00am 27.5 31.5 22.7 75 3.3 ESE 6 9 3 5 1014.3 1014.2 0.0
 
Date/Time
EST
Temp
°C
App
Temp
°C
Dew
Point
°C
Rel
Hum
%
Delta-T
°C
Wind Press
QNH
hPa
Press
MSL
hPa
Rain since
9am
mm
Dir  Spd
km/h
Gust
km/h
Spd
kts
Gust
kts
21/11:30pm 27.7 31.6 22.9 75 3.3 E 7 11 4 6 1014.4 1014.3 0.0
21/11:00pm 27.6 31.7 23.0 76 3.1 E 6 9 3 5 1014.3 1014.2 0.0
21/10:30pm 27.8 31.7 23.0 75 3.3 E 7 11 4 6 1014.3 1014.2 0.0
21/10:00pm 28.0 31.9 22.9 74 3.5 ESE 7 11 4 6 1014.2 1014.1 0.0
21/09:30pm 28.3 32.5 23.4 75 3.4 ENE 7 13 4 7 1014.3 1014.2 0.0
21/09:00pm 28.3 32.1 23.4 75 3.4 NE 9 15 5 8 1014.0 1013.9 0.0
21/08:30pm 28.3 32.0 23.2 74 3.5 ENE 9 17 5 9 1013.7 1013.6 0.0
21/08:00pm 28.3 32.0 23.2 74 3.5 ENE 9 15 5 8 1013.6 1013.5 0.0
21/07:30pm 28.2 31.9 22.2 70 4.0 ENE 6 11 3 6 1013.4 1013.3 0.0
21/07:00pm 28.3 30.6 22.8 72 3.7 NE 15 20 8 11 1013.0 1012.9 0.0
21/06:30pm 28.4 29.2 21.7 67 4.5 NE 20 32 11 17 1012.7 1012.6 0.0
21/06:00pm 29.6 31.1 23.1 68 4.5 NNE 20 30 11 16 1012.4 1012.3 0.0
21/05:30pm 30.1 31.4 23.3 67 4.7 NE 22 33 12 18 1012.2 1012.1 0.0
21/05:00pm 31.1 31.9 22.4 60 5.9 NNE 22 30 12 16 1011.6 1011.5 0.0
21/04:30pm 31.5 32.0 21.9 56 6.5 NNE 22 30 12 16 1011.3 1011.2 0.0
21/04:00pm 31.4 31.6 22.1 57 6.3 NNE 24 32 13 17 1011.2 1011.1 0.0
21/03:30pm 33.0 32.8 20.5 47 8.3 NE 22 30 12 16 1010.9 1010.8 0.0
21/03:00pm 34.5 33.7 19.3 40 10.0 NNE 22 30 12 16 1010.9 1010.8 0.0
21/02:30pm 34.6 33.7 17.8 37 10.9 NNE 19 28 10 15 1011.1 1011.0 0.0
21/02:00pm 34.7 33.5 17.0 35 11.3 NNE 19 24 10 13 1011.3 1011.2 0.0
21/01:30pm 33.9 33.5 18.8 41 9.9 NNE 19 26 10 14 1011.7 1011.6 0.0
21/01:00pm 33.7 34.4 20.5 46 8.8 NNE 17 28 9 15 1012.2 1012.1 0.0
21/12:30pm 32.2 32.4 20.1 48 8.0 NNE 19 24 10 13 1012.7 1012.6 0.0
21/12:00pm 33.2 34.8 21.4 50 8.0 NNE 15 20 8 11 1013.0 1012.9 0.0
21/11:30am 32.1 34.1 20.7 51 7.6 NNE 11 19 6 10 1013.2 1013.1 0.0
21/11:00am 32.0 34.2 20.3 50 7.8 NNE 9 17 5 9 1013.5 1013.4 0.0
21/10:30am 31.7 34.7 20.9 52 7.2 S 6 11 3 6 1013.9 1013.8 0.0
21/10:00am 30.7 33.6 21.8 59 6.0 ESE 9 13 5 7 1014.2 1014.1 0.0
21/09:30am 29.2 33.9 22.7 68 4.4 NW 2 6 1 3 1014.3 1014.2 0.0
21/09:00am 28.4 32.5 22.9 72 3.7 SSE 6 9 3 5 1014.3 1014.2 0.0
21/08:30am 27.5 31.6 22.9 76 3.1 S 6 9 3 5 1014.2 1014.1 0.0
21/08:00am 26.1 30.5 22.8 82 2.2 SSE 4 7 2 4 1014.0 1013.9 0.0
21/07:30am 25.7 29.8 23.0 85 1.8 S 6 7 3 4 1013.8 1013.7 0.0
21/07:00am 24.8 30.2 23.2 91 1.1 CALM 0 0 0 0 1013.6 1013.5 0.0
21/06:30am 23.9 28.9 22.5 92 0.9 CALM 0 0 0 0 1013.3 1013.2 0.0
21/06:00am 23.6 28.1 22.2 92 0.9 S 2 6 1 3 1012.9 1012.8 0.0
21/05:30am 23.7 27.2 22.1 91 1.1 S 7 9 4 5 1012.8 1012.7 0.0
21/05:00am 23.8 27.3 22.1 90 1.1 SSW 7 9 4 5 1012.6 1012.5 0.0
21/04:30am 24.2 28.1 22.5 90 1.1 S 6 7 3 4 1012.0 1011.9 0.0
21/04:00am 24.4 28.4 22.7 90 1.1 S 6 7 3 4 1011.9 1011.8 0.0
21/03:30am 24.6 28.1 22.8 90 1.2 SSE 9 13 5 7 1011.5 1011.4 0.0
21/03:00am 24.2 27.5 22.6 91 1.1 S 9 11 5 6 1011.3 1011.2 0.0
21/02:30am 24.2 28.5 22.6 91 1.1 SW 4 6 2 3 1011.0 1010.9 0.0
21/02:00am 24.2 29.2 22.5 90 1.1 CALM 0 4 0 2 1010.9 1010.8 0.0
21/01:30am 24.7 29.9 22.8 89 1.3 CALM 0 0 0 0 1010.9 1010.8 0.0
21/01:00am 25.1 30.0 23.0 88 1.4 WSW 2 7 1 4 1011.2 1011.1 0.0
21/12:30am 25.6 30.5 23.1 86 1.7 WSW 2 6 1 3 1011.4 1011.3 0.0
21/12:00am 26.1 30.3 23.2 84 2.0 W 6 7 3 4 1011.7 1011.6 0.0
 
Date/Time
EST
Temp
°C
App
Temp
°C
Dew
Point
°C
Rel
Hum
%
Delta-T
°C
Wind Press
QNH
hPa
Press
MSL
hPa
Rain since
9am
mm
Dir  Spd
km/h
Gust
km/h
Spd
kts
Gust
kts
20/11:30pm 27.4 31.5 23.2 78 2.9 NNE 7 9 4 5 1011.9 1011.8 0.0
20/11:00pm 27.7 31.8 23.3 77 3.0 NNE 7 11 4 6 1011.9 1011.8 0.0
20/10:30pm 28.1 32.1 23.7 77 3.0 NNE 9 15 5 8 1011.8 1011.7 0.0
20/10:00pm 28.1 31.2 23.5 76 3.2 NNE 13 17 7 9 1011.6 1011.5 0.0
20/09:30pm 28.2 31.2 23.3 75 3.4 NE 13 17 7 9 1011.5 1011.4 0.0
20/09:00pm 28.4 32.4 23.8 76 3.2 NNE 9 15 5 8 1011.3 1011.2 0.0
20/08:30pm 28.3 32.1 23.4 75 3.4 NNE 9 15 5 8 1011.1 1011.0 0.0
20/08:00pm 28.3 31.7 23.4 75 3.4 NNE 11 15 6 8 1010.7 1010.6 0.0
20/07:30pm 28.5 30.8 23.4 74 3.5 NNE 17 22 9 12 1010.3 1010.2 0.0
20/07:00pm 28.7 31.0 23.4 73 3.6 NNE 17 24 9 13 1010.0 1009.9 0.0
20/06:30pm 28.9 30.6 23.1 71 4.0 N 19 28 10 15 1009.6 1009.5 0.0
20/06:00pm 29.7 31.7 23.9 71 4.0 NNE 20 26 11 14 1009.1 1009.0 0.0
20/05:30pm 30.5 31.6 22.4 62 5.5 NNE 20 26 11 14 1008.7 1008.6 0.0
20/05:00pm 31.2 32.3 21.9 57 6.3 NNE 19 26 10 14 1008.1 1008.0 0.0
20/04:30pm 32.0 32.8 21.8 54 6.9 NNE 20 28 11 15 1007.7 1007.6 0.0
20/04:00pm 32.0 32.4 20.6 51 7.6 N 19 26 10 14 1007.5 1007.4 0.0
20/03:30pm 32.7 33.2 20.9 49 7.9 NNE 19 24 10 13 1007.6 1007.5 0.0
20/03:00pm 32.2 32.7 21.1 52 7.5 NNE 20 28 11 15 1007.7 1007.6 0.0
20/02:30pm 32.8 33.2 20.7 49 8.1 NE 19 28 10 15 1007.7 1007.6 0.0
20/02:00pm 33.0 33.6 20.2 47 8.5 NNE 17 22 9 12 1007.8 1007.7 0.0
20/01:30pm 33.0 34.7 20.9 49 8.1 NNE 13 20 7 11 1008.2 1008.1 0.0
20/01:00pm 33.0 35.0 21.5 50 7.8 NNE 13 19 7 10 1008.7 1008.6 0.0
20/12:30pm 32.4 35.1 22.2 55 7.0 NNE 11 20 6 11 1009.2 1009.1 0.0
20/12:00pm 31.1 33.0 21.3 56 6.6 N 13 19 7 10 1009.7 1009.6 0.0
20/11:30am 31.6 34.4 21.5 55 6.8 N 9 15 5 8 1010.0 1009.9 0.0
20/11:00am 31.0 33.4 20.9 55 6.8 N 9 13 5 7 1010.4 1010.3 0.0
20/10:30am 30.5 33.6 22.1 61 5.7 NNW 9 13 5 7 1010.7 1010.6 0.0

Other Formats:

Comma delimited format used in spreadsheet applications
http://www.bom.gov.au/fwo/IDQ60801/IDQ60801.95369.axf

JavaScript Object Notation format (JSON) in row-major order
http://www.bom.gov.au/fwo/IDQ60801/IDQ60801.95369.json